This is the latest recevied weather packets stored in our database for station/object IZ0CGP. If no packets are shown the sender has not sent any weather packets the latest 10 day(s).
| Time | Temp. | Humidity | Pressure | Rain* | Wind** | Luminosity | Snow |
|---|---|---|---|---|---|---|---|
| 1787484360 | 31.67° C | 39% | 1015.7 hPa | 0 mm | - | - | - |
| 1787482545 | 32.22° C | 36% | 1015.7 hPa | 0 mm | - | - | - |
| 1787480741 | 31.11° C | 46% | 1016.7 hPa | 0 mm | - | - | - |
| 1787478935 | 31.11° C | 51% | 1016.7 hPa | 0 mm | - | - | - |
| 1787477129 | 30° C | 55% | 1016.7 hPa | 0 mm | - | - | - |
| 1787475330 | 29.44° C | 54% | 1016.7 hPa | 0 mm | - | - | - |
| 1787473521 | 28.33° C | 54% | 1016.7 hPa | 0 mm | - | - | - |
| 1787471717 | 26.11° C | 58% | 1016.7 hPa | 0 mm | - | - | - |
| 1787469916 | 24.44° C | 62% | 1016.7 hPa | 0 mm | - | - | - |
| 1787468101 | 25° C | 64% | 1016.7 hPa | 0 mm | - | - | - |
| 1787466281 | 23.33° C | 65% | 1016.7 hPa | 0 mm | - | - | - |
| 1787464479 | 23.33° C | 67% | 1016.7 hPa | 0 mm | - | - | - |
| 1787462681 | 20° C | 70% | 1016.7 hPa | 0 mm | - | - | - |
| 1787460865 | 18.33° C | 77% | 1015.7 hPa | 0 mm | - | - | - |
| 1787459017 | 17.78° C | 79% | 1015.7 hPa | 0 mm | - | - | - |
| 1787457200 | 18.33° C | 79% | 1015.7 hPa | 0 mm | - | - | - |
| 1787455392 | 18.89° C | 77% | 1015.7 hPa | 0 mm | - | - | - |
| 1787453564 | 19.44° C | 73% | 1015.7 hPa | 0 mm | - | - | - |
| 1787451756 | 20° C | 74% | 1015.7 hPa | 0 mm | - | - | - |
| 1787449937 | 20° C | 75% | 1015.7 hPa | 0 mm | - | - | - |
| 1787448121 | 20.56° C | 75% | 1015.7 hPa | 0 mm | - | - | - |
| 1787446306 | 20.56° C | 74% | 1015.7 hPa | 0 mm | - | - | - |
| 1787444500 | 20.56° C | 74% | 1015.7 hPa | 0 mm | - | - | - |
| 1787442685 | 21.11° C | 74% | 1014.7 hPa | 0 mm | - | - | - |
| 1787440881 | 21.11° C | 76% | 1015.7 hPa | 0 mm | - | - | - |
* Rain latest hour (hover to see other rain measurements)
** Current wind speed in m/s (hover to see current wind gust speed)